LGKZ/KZI METAR and TAF weather

Enter ICAO airport designator
Station Type Date Time Source
LGKZ METAR 2021/08/05 04:20 UTC NOAA

LGKZ 050420Z AUTO 02006KT //// // ////// 22/07 Q1016 RE//


Station Type Date Time Source
LGKZ Decoded METAR 2021/08/05 04:20 UTC NOAA

Kozani Airport , Greece (LGKZ) 40-18N 021-47E 627M
Aug 05, 2021 - 12:20 AM EDT / 2021.08.05 0420 UTC
Wind: from the NNE (020 degrees) at 7 MPH (6 KT):0
Temperature: 71 F (22 C)
Dew Point: 44 F (7 C)
Relative Humidity: 37%
Pressure (altimeter): 30.00 in. Hg (1016 hPa)
ob: LGKZ 050420Z AUTO 02006KT //// // ////// 22/07 Q1016 RE//
cycle: 4

Station Type Date Time Source
LGKZ TAF UTC NOAA

Error!

Example: see airport list